Lea County Regional Airport
KHOB : now visible

Airfield :











YOU CAN JOIN US ON...

 
LOGIN :

Register | Disclaimer

   EN    FR    IT 

 









Legend :    VFR   Marginal VFR   IFR   Intensive IFR   Very Intensive IFR
Visi :
Ceiling :
>= 8 km
>= 3000ft
5 to 8 km
1000 to 3000 ft
1500m to 5 km
500 to 1000 ft
800 to 1500m
200 to 500 ft
< 800m
< 200 ft
Symbols :   Thunderstorms  Fog  Heavy snow  Heavy precipitations  Wind > 20 kt






- Airport Elevation : 3661 ft


KHOB - Lea County Regional

CURRENT METAR :
  • 250855Z AUTO 22006KT 10SM CLR 04/01 A3000 RMK AO2

EXPIRED METARs :
  • 250835Z AUTO 25006KT 10SM CLR 03/01 A3001 RMK AO2
  • 250815Z AUTO 22006KT 10SM CLR 04/01 A3000 RMK AO2
  • 250755Z AUTO 21009KT 10SM CLR 04/01 A3000 RMK AO2
  • 250735Z AUTO 20008KT 10SM CLR 05/01 A3001 RMK AO2
  • 250715Z AUTO 19008KT 10SM CLR 05/02 A3001 RMK AO2
  • 250655Z AUTO 20007KT 10SM CLR 04/01 A3002 RMK AO2
  • 250635Z AUTO 20008KT 10SM CLR 04/01 A3002 RMK AO2
  • 250615Z AUTO 20007KT 10SM CLR 04/01 A3003 RMK AO2
  • 250555Z AUTO 21005KT 10SM CLR 05/01 A3002 RMK AO2

TAF KHOB
Valid from the 25 at 06:00 until the 26 at 06:00 UTC


250535Z 2506/2606 19006KT P6SM FEW250
FM251800 27015KT P6SM SKC
FM252300 31008KT P6SM SKC



MET'MAP, your aeronautical weather chart ! - Copyright ORBIFLY December 2007 - Disclaimer

ORBIFLY MET'MAP TEAM :

Programming & Development : Alexandra Zaïnal
Concept & original design : Baudouin d'Aumeries
Assistance for programming : Marc-Olivier Méhu
Technical & hardware support : Manuel Goepfert

Contact : metmap@orbifly.com




SOURCES & CREDITS :

   NOAA       Earth
Advisory